createdAt,value
2022-11-16T00:02:14.035Z,8.77
2022-11-16T00:04:41.545Z,8.80
2022-11-16T00:07:09.298Z,8.78
2022-11-16T00:09:36.708Z,8.77
2022-11-16T00:12:06.793Z,8.76
2022-11-16T00:14:36.041Z,8.76
2022-11-16T00:17:04.241Z,8.75
2022-11-16T00:19:32.628Z,8.77
2022-11-16T00:21:59.888Z,8.77
2022-11-16T00:24:27.236Z,8.77
2022-11-16T00:26:55.668Z,8.77
2022-11-16T00:29:25.015Z,8.78
2022-11-16T00:31:53.891Z,8.78
2022-11-16T00:34:22.656Z,8.77
2022-11-16T00:36:49.984Z,8.78
2022-11-16T00:39:18.343Z,8.80
2022-11-16T00:41:47.266Z,8.77
2022-11-16T00:44:14.646Z,8.78
2022-11-16T00:46:42.415Z,8.77
2022-11-16T00:49:09.994Z,8.79
2022-11-16T00:51:37.731Z,8.78
2022-11-16T00:54:07.248Z,8.77
2022-11-16T00:56:36.244Z,8.78
2022-11-16T00:59:04.667Z,8.77
2022-11-16T01:01:32.653Z,8.78
2022-11-16T01:03:59.981Z,8.77
2022-11-16T01:06:27.184Z,8.78
2022-11-16T01:08:54.694Z,8.79
2022-11-16T01:11:42.599Z,8.78
2022-11-16T01:14:10.349Z,8.79
2022-11-16T01:16:37.490Z,8.78
2022-11-16T01:19:05.434Z,8.77
2022-11-16T01:21:33.225Z,8.78
2022-11-16T01:24:01.363Z,8.80
2022-11-16T01:26:29.994Z,8.79
2022-11-16T01:28:59.238Z,8.79
2022-11-16T01:31:29.411Z,8.80
2022-11-16T01:33:57.551Z,8.81
2022-11-16T01:36:27.635Z,8.84
2022-11-16T01:38:57.073Z,8.85
2022-11-16T01:41:27.868Z,8.82
2022-11-16T01:44:32.867Z,8.84
2022-11-16T01:47:11.752Z,8.86
2022-11-16T01:49:47.828Z,8.82
2022-11-16T01:52:22.071Z,8.86
2022-11-16T01:54:52.697Z,8.83
2022-11-16T01:57:28.098Z,8.84
2022-11-16T02:00:07.926Z,8.83
2022-11-16T02:02:41.739Z,8.86
2022-11-16T02:05:22.903Z,8.87
2022-11-16T02:08:29.168Z,8.88
2022-11-16T02:10:59.419Z,8.86
2022-11-16T02:13:57.757Z,8.85
2022-11-16T02:16:33.589Z,8.85
2022-11-16T02:19:39.688Z,8.88
2022-11-16T02:22:42.254Z,8.88
2022-11-16T02:25:12.096Z,8.86
2022-11-16T02:28:01.568Z,8.85
2022-11-16T02:30:28.662Z,8.86
2022-11-16T02:33:09.207Z,8.86
2022-11-16T02:35:59.516Z,8.87
2022-11-16T02:38:29.930Z,8.88
2022-11-16T02:41:11.989Z,8.88
2022-11-16T02:43:43.990Z,8.87
2022-11-16T02:46:26.299Z,8.88
2022-11-16T02:48:56.420Z,8.88
2022-11-16T02:51:27.258Z,8.89
2022-11-16T02:54:13.228Z,8.89
2022-11-16T02:57:02.706Z,8.87
2022-11-16T02:59:42.396Z,8.84
2022-11-16T03:02:33.062Z,8.82
2022-11-16T03:05:08.284Z,8.80
2022-11-16T03:07:48.926Z,8.80
2022-11-16T03:10:37.932Z,8.79
2022-11-16T03:13:10.885Z,8.77
2022-11-16T03:15:40.511Z,8.76
2022-11-16T03:18:10.323Z,8.74
2022-11-16T03:20:39.874Z,8.74
2022-11-16T03:23:11.491Z,8.74
2022-11-16T03:25:50.445Z,8.70
2022-11-16T03:28:33.321Z,8.71
2022-11-16T03:31:09.974Z,8.71
2022-11-16T03:33:56.364Z,8.72
2022-11-16T03:36:32.837Z,8.71
2022-11-16T03:39:13.038Z,8.70
2022-11-16T03:41:44.280Z,8.70
2022-11-16T03:44:14.768Z,8.68
2022-11-16T03:46:46.305Z,8.68
2022-11-16T03:49:14.754Z,8.68
2022-11-16T03:51:42.919Z,8.67
2022-11-16T03:54:10.033Z,8.65
2022-11-16T03:56:38.988Z,8.66
2022-11-16T03:59:06.170Z,8.64
2022-11-16T04:01:33.309Z,8.60
2022-11-16T04:04:00.611Z,8.50
2022-11-16T04:06:55.155Z,8.50
2022-11-16T04:09:40.945Z,8.47
2022-11-16T04:12:27.295Z,8.45
2022-11-16T04:15:13.738Z,8.42
2022-11-16T04:17:59.437Z,8.41
2022-11-16T04:20:45.218Z,8.40
2022-11-16T04:23:34.417Z,8.41
2022-11-16T04:26:03.196Z,8.38
2022-11-16T04:28:34.635Z,8.37
2022-11-16T04:31:24.049Z,8.37
2022-11-16T04:34:28.638Z,8.32
2022-11-16T04:37:17.049Z,8.34
2022-11-16T04:39:44.266Z,8.32
2022-11-16T04:42:19.986Z,8.31
2022-11-16T04:45:09.286Z,8.32
2022-11-16T04:47:44.107Z,8.29
2022-11-16T04:50:11.868Z,8.29
2022-11-16T04:52:40.472Z,8.26
2022-11-16T04:55:11.389Z,8.25
2022-11-16T04:57:38.871Z,8.24
2022-11-16T05:00:07.310Z,8.23
2022-11-16T05:02:36.455Z,8.22
2022-11-16T05:05:03.532Z,8.21
2022-11-16T05:07:30.750Z,8.18
2022-11-16T05:10:06.068Z,8.19
2022-11-16T05:12:34.891Z,8.16
2022-11-16T05:15:06.446Z,8.16
2022-11-16T05:17:34.770Z,8.16
2022-11-16T05:20:22.592Z,8.17
2022-11-16T05:22:57.638Z,8.16
2022-11-16T05:25:33.865Z,8.16
2022-11-16T05:28:05.623Z,8.19
2022-11-16T05:30:35.491Z,8.22
2022-11-16T05:33:04.080Z,8.22
2022-11-16T05:35:34.329Z,8.21
2022-11-16T05:38:02.470Z,8.21
2022-11-16T05:40:33.074Z,8.22
2022-11-16T05:43:01.354Z,8.22
2022-11-16T05:45:32.018Z,8.20
2022-11-16T05:48:00.811Z,8.18
2022-11-16T05:50:27.977Z,8.18
2022-11-16T05:53:11.460Z,8.16
2022-11-16T05:55:39.431Z,8.12
2022-11-16T05:58:06.739Z,8.08
2022-11-16T06:00:34.839Z,8.07
2022-11-16T06:03:02.449Z,8.06
2022-11-16T06:05:40.293Z,8.03
2022-11-16T06:08:11.161Z,8.01
2022-11-16T06:10:38.673Z,7.96
2022-11-16T06:13:06.615Z,7.87
2022-11-16T06:15:38.448Z,7.85
2022-11-16T06:18:08.497Z,7.82
2022-11-16T06:20:37.771Z,7.79
2022-11-16T06:23:06.193Z,7.78
2022-11-16T06:25:34.018Z,7.76
2022-11-16T06:28:06.655Z,7.70
2022-11-16T06:30:35.945Z,7.66
2022-11-16T06:33:05.627Z,7.62
2022-11-16T06:35:33.583Z,7.58
2022-11-16T06:38:02.946Z,7.56
2022-11-16T06:40:30.501Z,7.53
2022-11-16T06:42:58.022Z,7.50
2022-11-16T06:45:26.060Z,7.50
2022-11-16T06:47:57.542Z,7.48
2022-11-16T06:50:24.875Z,7.48
2022-11-16T06:52:52.944Z,7.44
2022-11-16T06:55:21.135Z,7.42
2022-11-16T06:57:48.549Z,7.44
2022-11-16T07:00:17.220Z,7.47
2022-11-16T07:02:45.237Z,7.47
2022-11-16T07:05:16.036Z,7.49
2022-11-16T07:07:43.445Z,7.47
2022-11-16T07:10:11.496Z,7.48
2022-11-16T07:12:39.103Z,7.49
2022-11-16T07:15:08.237Z,7.48
2022-11-16T07:17:39.459Z,7.49
2022-11-16T07:20:07.337Z,7.51
2022-11-16T07:22:34.803Z,7.53
2022-11-16T07:25:03.775Z,7.53
2022-11-16T07:27:31.147Z,7.55
2022-11-16T07:29:59.383Z,7.54
2022-11-16T07:32:43.339Z,7.53
2022-11-16T07:35:15.864Z,7.53
2022-11-16T07:37:43.558Z,7.52
2022-11-16T07:40:12.126Z,7.48
2022-11-16T07:42:39.625Z,7.46
2022-11-16T07:45:26.505Z,7.44
2022-11-16T07:47:58.560Z,7.44
2022-11-16T07:51:10.495Z,7.44
2022-11-16T07:53:44.467Z,7.43
2022-11-16T07:56:12.735Z,7.41
2022-11-16T07:58:41.463Z,7.44
2022-11-16T08:01:15.357Z,7.47
2022-11-16T08:03:45.684Z,7.46
2022-11-16T08:06:32.719Z,7.45
2022-11-16T08:09:01.001Z,7.46
2022-11-16T08:11:30.594Z,7.48
2022-11-16T08:13:58.310Z,7.49
2022-11-16T08:16:25.720Z,7.48
2022-11-16T08:19:03.678Z,7.49
2022-11-16T08:21:31.199Z,7.52
2022-11-16T08:23:59.080Z,7.54
2022-11-16T08:26:27.929Z,7.54
2022-11-16T08:29:04.182Z,7.56
2022-11-16T08:31:37.190Z,7.55
2022-11-16T08:34:12.301Z,7.56
2022-11-16T08:36:43.230Z,7.63
2022-11-16T08:39:11.954Z,7.69
2022-11-16T08:41:39.256Z,7.66
2022-11-16T08:44:08.578Z,7.68
2022-11-16T08:46:40.455Z,7.74
2022-11-16T08:49:18.216Z,7.83
2022-11-16T08:51:45.659Z,7.90
2022-11-16T08:54:14.424Z,7.99
2022-11-16T08:56:43.062Z,8.03
2022-11-16T08:59:10.704Z,8.08
2022-11-16T09:01:43.111Z,8.18
2022-11-16T09:04:10.496Z,8.23
2022-11-16T09:06:37.980Z,8.23
2022-11-16T09:09:05.616Z,8.23
2022-11-16T09:11:32.941Z,8.22
2022-11-16T09:14:00.395Z,8.20
2022-11-16T09:16:28.304Z,8.23
2022-11-16T09:18:56.360Z,8.25
2022-11-16T09:21:26.345Z,8.22
2022-11-16T09:23:55.662Z,8.21
2022-11-16T09:26:26.910Z,8.13
2022-11-16T09:29:01.226Z,8.20
2022-11-16T09:31:29.662Z,8.19
2022-11-16T09:34:01.860Z,8.16
2022-11-16T09:36:29.497Z,8.15
2022-11-16T09:42:22.686Z,8.16
2022-11-16T09:45:04.926Z,8.13
2022-11-16T09:47:44.291Z,8.17
2022-11-16T09:50:27.582Z,8.17
2022-11-16T09:52:59.475Z,8.19
2022-11-16T09:55:51.394Z,8.17
2022-11-16T09:58:45.064Z,8.17
2022-11-16T10:01:33.021Z,8.21
2022-11-16T10:04:27.933Z,8.24
2022-11-16T10:07:25.235Z,8.38
2022-11-16T10:09:52.976Z,8.49
2022-11-16T10:12:32.056Z,8.64
2022-11-16T10:15:18.103Z,8.60
2022-11-16T10:18:04.105Z,8.61
2022-11-16T10:20:54.782Z,8.67
2022-11-16T10:23:50.379Z,8.75
2022-11-16T10:26:28.075Z,8.74
2022-11-16T10:29:35.298Z,8.70
2022-11-16T10:32:02.478Z,8.74
2022-11-16T10:34:42.345Z,8.75
2022-11-16T10:37:13.537Z,8.77
2022-11-16T10:39:41.579Z,8.78
2022-11-16T10:42:16.870Z,8.80
2022-11-16T10:45:20.907Z,8.88
2022-11-16T10:48:12.596Z,8.97
2022-11-16T10:50:49.104Z,9.04
2022-11-16T10:53:44.108Z,9.28
2022-11-16T10:56:25.979Z,9.19
2022-11-16T10:59:05.785Z,9.27
2022-11-16T11:01:54.931Z,9.32
2022-11-16T11:04:24.635Z,9.46
2022-11-16T11:06:53.707Z,9.47
2022-11-16T11:09:26.187Z,9.52
2022-11-16T11:12:31.896Z,9.52
2022-11-16T11:15:11.653Z,9.63
2022-11-16T11:17:41.066Z,9.51
2022-11-16T11:20:22.184Z,9.49
2022-11-16T11:23:00.963Z,9.51
2022-11-16T11:25:39.196Z,9.44
2022-11-16T11:28:08.146Z,9.39
2022-11-16T11:30:36.339Z,9.38
2022-11-16T11:33:12.040Z,9.40
2022-11-16T11:35:39.576Z,9.63
2022-11-16T11:38:08.452Z,9.59
2022-11-16T11:40:36.426Z,9.49
2022-11-16T11:43:06.356Z,9.57
2022-11-16T11:45:45.263Z,9.50
2022-11-16T11:48:18.343Z,9.52
2022-11-16T11:50:50.383Z,9.63
2022-11-16T11:53:44.259Z,9.68
2022-11-16T11:56:12.867Z,9.79
2022-11-16T11:58:42.309Z,9.79
2022-11-16T12:01:16.615Z,9.81
2022-11-16T12:04:11.553Z,9.86
2022-11-16T12:07:18.189Z,9.73
2022-11-16T12:10:00.582Z,9.76
2022-11-16T12:12:49.503Z,10.01
2022-11-16T12:15:22.508Z,9.92
2022-11-16T12:18:17.590Z,9.81
2022-11-16T12:21:04.099Z,9.81
2022-11-16T12:23:43.963Z,9.89
2022-11-16T12:26:49.668Z,10.05
2022-11-16T12:29:29.885Z,10.09
2022-11-16T12:32:15.752Z,10.15
2022-11-16T12:35:01.280Z,10.13
2022-11-16T12:37:44.062Z,10.26
2022-11-16T12:40:20.443Z,10.34
2022-11-16T12:43:11.106Z,10.35
2022-11-16T12:45:46.987Z,10.32
2022-11-16T12:48:53.588Z,10.37
2022-11-16T12:51:49.545Z,10.41
2022-11-16T12:54:57.704Z,10.44
2022-11-16T12:57:46.824Z,10.61
2022-11-16T13:00:17.675Z,10.43
2022-11-16T13:03:03.461Z,10.41
2022-11-16T13:05:52.655Z,10.37
2022-11-16T13:08:48.135Z,10.31
2022-11-16T13:11:18.258Z,10.26
2022-11-16T13:13:53.677Z,10.10
2022-11-16T13:16:23.376Z,10.08
2022-11-16T13:18:51.549Z,10.05
2022-11-16T13:21:44.072Z,9.97
2022-11-16T13:24:29.855Z,9.92
2022-11-16T13:27:19.064Z,9.94
2022-11-16T13:29:49.901Z,9.85
2022-11-16T13:32:47.790Z,9.83
2022-11-16T13:35:19.582Z,9.79
2022-11-16T13:37:51.901Z,9.79
2022-11-16T13:40:23.832Z,9.80
2022-11-16T13:43:06.283Z,9.72
2022-11-16T13:45:57.256Z,9.67
2022-11-16T13:48:38.809Z,9.65
2022-11-16T13:51:09.584Z,9.70
2022-11-16T13:56:29.497Z,9.61
2022-11-16T13:58:58.903Z,9.62
2022-11-16T14:01:46.195Z,9.59
2022-11-16T14:05:04.355Z,9.59
2022-11-16T14:07:40.743Z,9.52
2022-11-16T14:10:08.326Z,9.51
2022-11-16T14:12:38.627Z,9.50
2022-11-16T14:15:24.896Z,9.44
2022-11-16T14:18:32.035Z,9.56
2022-11-16T14:21:09.455Z,9.54
2022-11-16T14:23:48.551Z,9.53
2022-11-16T14:26:33.149Z,9.53
2022-11-16T14:29:21.693Z,9.43
2022-11-16T14:32:01.982Z,9.35
2022-11-16T14:34:49.164Z,9.26
2022-11-16T14:37:22.544Z,9.15
2022-11-16T14:39:51.775Z,9.14
2022-11-16T14:42:27.061Z,9.15
2022-11-16T14:45:04.227Z,9.21
2022-11-16T14:47:37.226Z,9.21
2022-11-16T14:50:17.267Z,9.21
2022-11-16T14:52:48.668Z,9.20
2022-11-16T14:55:22.336Z,9.24
2022-11-16T14:57:49.653Z,9.26
2022-11-16T15:00:30.152Z,9.29
2022-11-16T15:03:02.573Z,9.28
2022-11-16T15:05:35.143Z,9.24
2022-11-16T15:08:07.822Z,9.22
2022-11-16T15:10:36.296Z,9.21
2022-11-16T15:13:04.473Z,9.20
2022-11-16T15:15:32.392Z,9.19
2022-11-16T15:18:00.207Z,9.16
2022-11-16T15:20:29.936Z,9.15
2022-11-16T15:22:59.947Z,9.12
2022-11-16T15:25:40.596Z,9.07
2022-11-16T15:28:23.380Z,9.03
2022-11-16T15:31:02.701Z,8.98
2022-11-16T15:33:43.061Z,8.94
2022-11-16T15:36:26.158Z,8.92
2022-11-16T15:38:56.974Z,8.88
2022-11-16T15:41:28.217Z,8.85
2022-11-16T15:44:16.583Z,8.81
2022-11-16T15:46:51.383Z,8.77
2022-11-16T15:49:18.621Z,8.71
2022-11-16T15:51:46.001Z,8.68
2022-11-16T15:54:55.033Z,8.65
2022-11-16T15:57:24.217Z,8.62
2022-11-16T15:59:57.514Z,8.61
2022-11-16T16:02:30.595Z,8.61
2022-11-16T16:04:58.224Z,8.62
2022-11-16T16:07:44.220Z,8.60
2022-11-16T16:10:20.912Z,8.62
2022-11-16T16:12:52.657Z,8.59
2022-11-16T16:15:34.189Z,8.56
2022-11-16T16:18:03.877Z,8.52
2022-11-16T16:20:32.983Z,8.51
2022-11-16T16:23:16.516Z,8.52
2022-11-16T16:25:50.125Z,8.51
2022-11-16T16:28:18.101Z,8.52
2022-11-16T16:30:45.526Z,8.50
2022-11-16T16:33:22.249Z,8.49
2022-11-16T16:35:52.293Z,8.47
2022-11-16T16:38:20.702Z,8.48
2022-11-16T16:40:48.261Z,8.47
2022-11-16T16:43:15.695Z,8.46
2022-11-16T16:45:44.174Z,8.47
2022-11-16T16:48:14.820Z,8.45
2022-11-16T16:50:42.294Z,8.45
2022-11-16T16:53:14.239Z,8.41
2022-11-16T16:55:46.259Z,8.42
2022-11-16T16:58:15.812Z,8.40
2022-11-16T17:00:43.564Z,8.39
2022-11-16T17:03:11.032Z,8.37
2022-11-16T17:05:38.516Z,8.35
2022-11-16T17:08:06.463Z,8.33
2022-11-16T17:10:33.783Z,8.32
2022-11-16T17:13:03.348Z,8.32
2022-11-16T17:15:30.856Z,8.30
2022-11-16T17:17:59.908Z,8.30
2022-11-16T17:20:27.401Z,8.29
2022-11-16T17:22:55.095Z,8.30
2022-11-16T17:25:22.523Z,8.28
2022-11-16T17:27:49.894Z,8.26
2022-11-16T17:30:17.396Z,8.24
2022-11-16T17:32:44.709Z,8.24
2022-11-16T17:35:12.154Z,8.25
2022-11-16T17:37:39.484Z,8.24
2022-11-16T17:40:07.877Z,8.24
2022-11-16T17:42:38.001Z,8.24
2022-11-16T17:45:06.245Z,8.23
2022-11-16T17:47:33.981Z,8.24
2022-11-16T17:50:01.501Z,8.25
2022-11-16T17:52:28.920Z,8.24
2022-11-16T17:54:56.697Z,8.25
2022-11-16T17:57:24.026Z,8.25
2022-11-16T17:59:51.536Z,8.24
2022-11-16T18:02:18.895Z,8.26
2022-11-16T18:04:51.120Z,8.24
2022-11-16T18:07:19.155Z,8.26
2022-11-16T18:09:46.889Z,8.26
2022-11-16T18:12:14.295Z,8.25
2022-11-16T18:14:42.504Z,8.24
2022-11-16T18:17:09.905Z,8.27
2022-11-16T18:19:38.431Z,8.26
2022-11-16T18:22:05.704Z,8.26
2022-11-16T18:24:33.542Z,8.27
2022-11-16T18:27:00.823Z,8.27
2022-11-16T18:29:28.222Z,8.26
2022-11-16T18:31:55.662Z,8.24
2022-11-16T18:34:23.087Z,8.23
2022-11-16T18:36:51.141Z,8.22
2022-11-16T18:39:18.741Z,8.20
2022-11-16T18:41:51.684Z,8.20
2022-11-16T18:44:21.839Z,8.22
2022-11-16T18:46:52.105Z,8.21
2022-11-16T18:49:22.658Z,8.20
2022-11-16T18:51:50.105Z,8.19
2022-11-16T18:54:17.983Z,8.19
2022-11-16T18:56:45.443Z,8.23
2022-11-16T18:59:12.824Z,8.21
2022-11-16T19:01:40.200Z,8.19
2022-11-16T19:04:09.075Z,8.22
2022-11-16T19:06:36.336Z,8.23
2022-11-16T19:09:06.475Z,8.26
2022-11-16T19:11:33.918Z,8.24
2022-11-16T19:14:04.054Z,8.25
2022-11-16T19:16:32.083Z,8.27
2022-11-16T19:18:59.904Z,8.26
2022-11-16T19:21:28.003Z,8.23
2022-11-16T19:23:56.683Z,8.24
2022-11-16T19:26:27.218Z,8.24
2022-11-16T19:28:55.302Z,8.23
2022-11-16T19:31:27.621Z,8.23
2022-11-16T19:34:00.055Z,8.23
2022-11-16T19:36:28.993Z,8.23
2022-11-16T19:38:56.773Z,8.24
2022-11-16T19:41:26.021Z,8.21
2022-11-16T19:44:00.094Z,8.22
2022-11-16T19:46:32.501Z,8.21
2022-11-16T19:49:00.572Z,8.22
2022-11-16T19:51:30.941Z,8.22
2022-11-16T19:54:00.419Z,8.22
2022-11-16T19:56:27.938Z,8.21
2022-11-16T19:58:55.357Z,8.21
2022-11-16T20:01:26.412Z,8.19
2022-11-16T20:03:55.429Z,8.20
2022-11-16T20:06:25.700Z,8.21
2022-11-16T20:08:56.234Z,8.19
2022-11-16T20:11:25.961Z,8.18
2022-11-16T20:13:55.430Z,8.17
2022-11-16T20:16:25.635Z,8.20
2022-11-16T20:18:53.923Z,8.20
2022-11-16T20:21:30.504Z,8.21
2022-11-16T20:24:03.053Z,8.20
2022-11-16T20:26:35.665Z,8.16
2022-11-16T20:29:03.599Z,8.16
2022-11-16T20:31:32.962Z,8.16
2022-11-16T20:34:11.524Z,8.16
2022-11-16T20:36:38.717Z,8.16
2022-11-16T20:39:06.320Z,8.19
2022-11-16T20:41:34.622Z,8.19
2022-11-16T20:44:02.861Z,8.18
2022-11-16T20:46:32.693Z,8.19
2022-11-16T20:49:02.002Z,8.19
2022-11-16T20:51:30.376Z,8.21
2022-11-16T20:53:58.617Z,8.19
2022-11-16T20:56:26.103Z,8.19
2022-11-16T20:58:54.034Z,8.17
2022-11-16T21:01:32.116Z,8.16
2022-11-16T21:04:02.476Z,8.17
2022-11-16T21:06:30.104Z,8.14
2022-11-16T21:08:57.980Z,8.15
2022-11-16T21:11:29.332Z,8.17
2022-11-16T21:14:15.787Z,8.18
2022-11-16T21:16:43.413Z,8.16
2022-11-16T21:19:11.888Z,8.18
2022-11-16T21:21:41.117Z,8.19
2022-11-16T21:24:09.859Z,8.18
2022-11-16T21:26:38.065Z,8.15
2022-11-16T21:29:05.973Z,8.15
2022-11-16T21:31:37.019Z,8.18
2022-11-16T21:34:06.099Z,8.17
2022-11-16T21:36:33.915Z,8.16
2022-11-16T21:39:01.691Z,8.18
2022-11-16T21:41:29.222Z,8.16
2022-11-16T21:43:56.938Z,8.15
2022-11-16T21:46:26.523Z,8.12
2022-11-16T21:48:56.910Z,8.13
2022-11-16T21:51:27.239Z,8.10
2022-11-16T21:53:55.687Z,8.11
2022-11-16T21:56:24.935Z,8.07
2022-11-16T21:58:53.887Z,8.08
2022-11-16T22:01:22.351Z,8.04
2022-11-16T22:04:10.255Z,8.02
2022-11-16T22:06:58.477Z,8.00
2022-11-16T22:09:25.925Z,7.98
2022-11-16T22:11:53.198Z,7.98
2022-11-16T22:14:20.492Z,7.96
2022-11-16T22:16:47.876Z,7.95
2022-11-16T22:19:15.109Z,7.91
2022-11-16T22:21:42.539Z,7.90
2022-11-16T22:24:10.113Z,7.88
2022-11-16T22:26:38.380Z,7.87
2022-11-16T22:29:07.780Z,7.87
2022-11-16T22:31:36.345Z,7.88
2022-11-16T22:34:03.735Z,7.91
2022-11-16T22:36:33.148Z,7.90
2022-11-16T22:39:03.060Z,7.89
2022-11-16T22:41:30.532Z,7.89
2022-11-16T22:43:57.781Z,7.88
2022-11-16T22:46:25.158Z,7.87
2022-11-16T22:48:52.555Z,7.87
2022-11-16T22:51:25.237Z,7.86
2022-11-16T22:53:55.995Z,7.84
2022-11-16T22:56:24.074Z,7.81
2022-11-16T22:58:51.314Z,7.81
2022-11-16T23:01:19.663Z,7.80
2022-11-16T23:03:48.042Z,7.80
2022-11-16T23:06:15.971Z,7.78
2022-11-16T23:08:43.572Z,7.79
2022-11-16T23:11:43.047Z,7.80
2022-11-16T23:14:31.438Z,7.79
2022-11-16T23:16:58.945Z,7.79
2022-11-16T23:19:46.842Z,7.81
2022-11-16T23:22:35.482Z,7.81
2022-11-16T23:25:21.923Z,7.81
2022-11-16T23:28:03.898Z,7.82
2022-11-16T23:30:31.673Z,7.80
2022-11-16T23:32:58.764Z,7.80
2022-11-16T23:35:26.059Z,7.79
2022-11-16T23:38:01.230Z,7.82
2022-11-16T23:40:34.005Z,7.82
2022-11-16T23:43:19.777Z,7.79
2022-11-16T23:45:47.214Z,7.82
2022-11-16T23:48:16.022Z,7.80
2022-11-16T23:50:44.503Z,7.79
2022-11-16T23:53:12.084Z,7.79
2022-11-16T23:55:40.098Z,7.78
2022-11-16T23:58:16.317Z,7.78
